< < Back
Terminal Aerodrome Forecast


Current Version              Previous Versions:   1  2  3  4  5  6  7  8  9  

Terminal Aerodrome Forecast

573
FTUS44 KBMX 021423 AAA
TAFTCL
TAF AMD
KTCL 021423Z 0214/0312 19004KT P6SM VCSH SCT015 BKN040
     FM021700 23009KT P6SM VCTS BKN040CB
     FM030000 22009KT P6SM SCT025 OVC200
     FM030600 20009KT P6SM VCTS BKN025CB=

Latest METAR

358
SAUS70 KWBC 030600 RRK
MTRTCL
METAR KTCL 030553Z AUTO 23007KT 7SM CLR 26/23 A2998 RMK AO2 SLP149
T02610228 10283 20256 403280228 50007


USA.gov is the U.S. government's official web portal to all federal, state and local government web resources and services.